createdAt,value
2019-02-10T00:00:15.655Z,1003.24
2019-02-10T00:01:15.643Z,1003.25
2019-02-10T00:02:15.627Z,1003.22
2019-02-10T00:03:15.632Z,1003.19
2019-02-10T00:04:15.624Z,1003.22
2019-02-10T00:05:15.594Z,1003.22
2019-02-10T00:06:15.587Z,1003.18
2019-02-10T00:07:15.582Z,1003.23
2019-02-10T00:08:15.584Z,1003.28
2019-02-10T00:09:15.555Z,1003.26
2019-02-10T00:10:15.545Z,1003.26
2019-02-10T00:11:15.537Z,1003.26
2019-02-10T00:12:15.524Z,1003.26
2019-02-10T00:13:15.549Z,1003.21
2019-02-10T00:14:15.502Z,1003.26
2019-02-10T00:15:15.498Z,1003.28
2019-02-10T00:16:15.481Z,1003.32
2019-02-10T00:17:15.470Z,1003.33
2019-02-10T00:18:15.987Z,1003.35
2019-02-10T00:19:15.462Z,1003.34
2019-02-10T00:20:15.445Z,1003.34
2019-02-10T00:21:15.431Z,1003.29
2019-02-10T00:22:16.622Z,1003.33
2019-02-10T00:23:15.407Z,1003.33
2019-02-10T00:24:15.409Z,1003.35
2019-02-10T00:25:15.386Z,1003.29
2019-02-10T00:26:15.377Z,1003.26
2019-02-10T00:27:15.365Z,1003.30
2019-02-10T00:28:15.355Z,1003.37
2019-02-10T00:29:15.363Z,1003.32
2019-02-10T00:30:15.334Z,1003.36
2019-02-10T00:31:15.323Z,1003.40
2019-02-10T00:32:15.311Z,1003.42
2019-02-10T00:33:15.343Z,1003.37
2019-02-10T00:34:15.300Z,1003.39
2019-02-10T00:35:15.286Z,1003.38
2019-02-10T00:36:15.274Z,1003.40
2019-02-10T00:37:15.262Z,1003.44
2019-02-10T00:38:15.245Z,1003.41
2019-02-10T00:39:15.246Z,1003.40
2019-02-10T00:40:15.224Z,1003.39
2019-02-10T00:41:15.210Z,1003.35
2019-02-10T00:42:15.204Z,1003.40
2019-02-10T00:43:15.190Z,1003.40
2019-02-10T00:44:15.192Z,1003.41
2019-02-10T00:45:15.176Z,1003.42
2019-02-10T00:46:15.160Z,1003.33
2019-02-10T00:47:15.159Z,1003.39
2019-02-10T00:48:15.170Z,1003.40
2019-02-10T00:49:15.143Z,1003.35
2019-02-10T00:50:15.117Z,1003.36
2019-02-10T00:51:15.111Z,1003.33
2019-02-10T00:52:15.122Z,1003.35
2019-02-10T00:53:15.090Z,1003.31
2019-02-10T00:54:15.098Z,1003.35
2019-02-10T00:55:15.065Z,1003.34
2019-02-10T00:56:15.056Z,1003.33
2019-02-10T00:57:15.049Z,1003.32
2019-02-10T00:58:15.033Z,1003.31
2019-02-10T00:59:15.036Z,1003.34
2019-02-10T01:00:15.028Z,1003.36
2019-02-10T01:01:15.006Z,1003.35
2019-02-10T01:02:14.994Z,1003.33
2019-02-10T01:03:14.980Z,1003.32
2019-02-10T01:04:14.982Z,1003.38
2019-02-10T01:05:14.958Z,1003.36
2019-02-10T01:06:14.954Z,1003.30
2019-02-10T01:07:14.943Z,1003.33
2019-02-10T01:08:14.927Z,1003.25
2019-02-10T01:09:14.915Z,1003.24
2019-02-10T01:10:14.917Z,1003.25
2019-02-10T01:11:14.897Z,1003.25
2019-02-10T01:12:14.888Z,1003.27
2019-02-10T01:13:14.874Z,1003.27
2019-02-10T01:14:14.865Z,1003.23
2019-02-10T01:15:14.869Z,1003.22
2019-02-10T01:16:14.841Z,1003.18
2019-02-10T01:17:14.831Z,1003.17
2019-02-10T01:18:14.827Z,1003.19
2019-02-10T01:19:14.811Z,1003.24
2019-02-10T01:20:14.814Z,1003.20
2019-02-10T01:21:14.787Z,1003.13
2019-02-10T01:22:14.780Z,1003.17
2019-02-10T01:23:14.772Z,1003.14
2019-02-10T01:24:14.765Z,1003.13
2019-02-10T01:25:14.760Z,1003.16
2019-02-10T01:26:14.733Z,1003.15
2019-02-10T01:27:14.738Z,1003.08
2019-02-10T01:28:14.716Z,1003.11
2019-02-10T01:29:14.708Z,1003.10
2019-02-10T01:30:14.704Z,1003.10
2019-02-10T01:31:14.679Z,1003.08
2019-02-10T01:32:14.667Z,1003.07
2019-02-10T01:33:14.657Z,1003.10
2019-02-10T01:34:14.650Z,1003.07
2019-02-10T01:35:14.647Z,1003.10
2019-02-10T01:36:14.625Z,1003.05
2019-02-10T01:37:14.615Z,1003.07
2019-02-10T01:38:14.604Z,1003.03
2019-02-10T01:39:14.596Z,1003.00
2019-02-10T01:40:14.593Z,1003.02
2019-02-10T01:41:14.572Z,1003.06
2019-02-10T01:42:14.562Z,1003.00
2019-02-10T01:43:14.552Z,1003.04
2019-02-10T01:44:14.541Z,1002.99
2019-02-10T01:45:14.539Z,1002.97
2019-02-10T01:46:14.523Z,1002.99
2019-02-10T01:47:14.511Z,1003.00
2019-02-10T01:48:14.498Z,1002.97
2019-02-10T01:49:14.490Z,1002.97
2019-02-10T01:50:14.490Z,1002.93
2019-02-10T01:51:14.466Z,1002.93
2019-02-10T01:52:14.470Z,1002.95
2019-02-10T01:53:14.445Z,1002.90
2019-02-10T01:54:14.450Z,1002.88
2019-02-10T01:55:14.433Z,1002.90
2019-02-10T01:56:14.413Z,1002.88
2019-02-10T01:57:14.406Z,1002.84
2019-02-10T01:58:14.398Z,1002.81
2019-02-10T01:59:14.389Z,1002.81
2019-02-10T02:00:14.395Z,1002.86
2019-02-10T02:01:14.358Z,1002.82
2019-02-10T02:02:14.355Z,1002.82
2019-02-10T02:03:14.338Z,1002.80
2019-02-10T02:04:14.342Z,1002.83
2019-02-10T02:05:14.324Z,1002.78
2019-02-10T02:06:14.302Z,1002.76
2019-02-10T02:07:14.298Z,1002.78
2019-02-10T02:08:14.288Z,1002.80
2019-02-10T02:09:14.280Z,1002.81
2019-02-10T02:10:14.274Z,1002.78
2019-02-10T02:11:14.254Z,1002.81
2019-02-10T02:12:14.242Z,1002.72
2019-02-10T02:13:14.999Z,1002.75
2019-02-10T02:14:14.274Z,1002.73
2019-02-10T02:15:14.219Z,1002.70
2019-02-10T02:16:14.199Z,1002.70
2019-02-10T02:17:14.192Z,1002.70
2019-02-10T02:18:14.179Z,1002.67
2019-02-10T02:19:14.177Z,1002.62
2019-02-10T02:20:14.172Z,1002.65
2019-02-10T02:21:14.155Z,1002.61
2019-02-10T02:22:14.138Z,1002.61
2019-02-10T02:23:14.129Z,1002.63
2019-02-10T02:24:14.115Z,1002.65
2019-02-10T02:25:14.118Z,1002.61
2019-02-10T02:26:14.110Z,1002.65
2019-02-10T02:27:14.086Z,1002.62
2019-02-10T02:28:14.075Z,1002.62
2019-02-10T02:29:14.062Z,1002.72
2019-02-10T02:30:14.066Z,1002.61
2019-02-10T02:31:14.043Z,1002.77
2019-02-10T02:32:14.032Z,1002.72
2019-02-10T02:33:14.033Z,1002.73
2019-02-10T02:34:14.017Z,1002.71
2019-02-10T02:35:14.012Z,1002.70
2019-02-10T02:36:13.992Z,1002.68
2019-02-10T02:37:13.981Z,1002.62
2019-02-10T02:38:13.975Z,1002.56
2019-02-10T02:39:13.957Z,1002.60
2019-02-10T02:40:13.956Z,1002.53
2019-02-10T02:41:13.934Z,1002.56
2019-02-10T02:42:13.924Z,1002.52
2019-02-10T02:43:13.919Z,1002.49
2019-02-10T02:44:13.907Z,1002.46
2019-02-10T02:45:13.913Z,1002.50
2019-02-10T02:46:13.887Z,1002.52
2019-02-10T02:47:13.874Z,1002.45
2019-02-10T02:48:13.879Z,1002.45
2019-02-10T02:49:13.866Z,1002.46
2019-02-10T02:50:13.859Z,1002.42
2019-02-10T02:51:13.829Z,1002.41
2019-02-10T02:52:13.822Z,1002.42
2019-02-10T02:53:13.808Z,1002.39
2019-02-10T02:54:13.799Z,1002.40
2019-02-10T02:55:13.802Z,1002.38
2019-02-10T02:56:13.778Z,1002.34
2019-02-10T02:57:13.785Z,1002.37
2019-02-10T02:58:13.758Z,1002.32
2019-02-10T02:59:13.750Z,1002.26
2019-02-10T03:00:13.747Z,1002.27
2019-02-10T03:01:13.723Z,1002.26
2019-02-10T03:02:13.715Z,1002.24
2019-02-10T03:03:13.707Z,1002.21
2019-02-10T03:04:13.698Z,1002.18
2019-02-10T03:05:13.692Z,1002.22
2019-02-10T03:06:13.675Z,1002.26
2019-02-10T03:07:18.008Z,1002.14
2019-02-10T03:08:13.650Z,1002.19
2019-02-10T03:09:13.640Z,1002.15
2019-02-10T03:10:13.641Z,1002.09
2019-02-10T03:11:13.619Z,1002.10
2019-02-10T03:12:13.608Z,1002.11
2019-02-10T03:13:13.599Z,1002.07
2019-02-10T03:14:13.589Z,1002.05
2019-02-10T03:15:13.608Z,1002.04
2019-02-10T03:16:13.566Z,1002.10
2019-02-10T03:17:13.557Z,1002.06
2019-02-10T03:18:13.550Z,1001.99
2019-02-10T03:19:13.535Z,1002.01
2019-02-10T03:20:13.535Z,1001.99
2019-02-10T03:21:13.514Z,1001.98
2019-02-10T03:22:13.502Z,1001.96
2019-02-10T03:23:13.493Z,1001.94
2019-02-10T03:24:13.484Z,1001.96
2019-02-10T03:25:13.484Z,1001.97
2019-02-10T03:26:13.462Z,1001.91
2019-02-10T03:27:13.453Z,1002.00
2019-02-10T03:28:13.445Z,1001.93
2019-02-10T03:29:13.430Z,1001.94
2019-02-10T03:30:13.431Z,1001.94
2019-02-10T03:31:13.415Z,1001.93
2019-02-10T03:32:13.412Z,1001.91
2019-02-10T03:33:13.391Z,1001.86
2019-02-10T03:34:13.380Z,1001.90
2019-02-10T03:35:13.396Z,1001.89
2019-02-10T03:36:13.356Z,1001.90
2019-02-10T03:37:13.344Z,1001.88
2019-02-10T03:38:13.338Z,1001.87
2019-02-10T03:39:13.337Z,1001.83
2019-02-10T03:40:13.316Z,1001.89
2019-02-10T03:41:13.314Z,1001.87
2019-02-10T03:42:13.306Z,1001.82
2019-02-10T03:43:13.283Z,1001.81
2019-02-10T03:44:13.269Z,1001.79
2019-02-10T03:45:13.257Z,1001.77
2019-02-10T03:46:13.280Z,1001.80
2019-02-10T03:47:13.242Z,1001.76
2019-02-10T03:48:13.229Z,1001.77
2019-02-10T03:49:13.223Z,1001.74
2019-02-10T03:50:13.222Z,1001.80
2019-02-10T03:51:13.212Z,1001.80
2019-02-10T03:52:13.190Z,1001.82
2019-02-10T03:53:13.177Z,1001.77
2019-02-10T03:54:13.166Z,1001.71
2019-02-10T03:55:13.159Z,1001.72
2019-02-10T03:56:13.160Z,1001.70
2019-02-10T03:57:13.133Z,1001.73
2019-02-10T03:58:13.122Z,1001.74
2019-02-10T03:59:13.127Z,1001.69
2019-02-10T04:00:13.098Z,1001.67
2019-02-10T04:01:13.104Z,1001.66
2019-02-10T04:02:13.081Z,1001.66
2019-02-10T04:03:13.068Z,1001.67
2019-02-10T04:04:13.060Z,1001.60
2019-02-10T04:05:13.051Z,1001.60
2019-02-10T04:06:13.047Z,1001.62
2019-02-10T04:07:13.025Z,1001.60
2019-02-10T04:08:13.019Z,1001.56
2019-02-10T04:09:13.018Z,1001.60
2019-02-10T04:10:12.996Z,1001.56
2019-02-10T04:11:12.999Z,1001.55
2019-02-10T04:12:12.976Z,1001.54
2019-02-10T04:13:12.966Z,1001.60
2019-02-10T04:14:12.953Z,1001.51
2019-02-10T04:15:12.943Z,1001.51
2019-02-10T04:16:12.951Z,1001.46
2019-02-10T04:17:12.922Z,1001.46
2019-02-10T04:18:12.913Z,1001.45
2019-02-10T04:19:12.946Z,1001.40
2019-02-10T04:20:12.897Z,1001.43
2019-02-10T04:21:12.892Z,1001.43
2019-02-10T04:22:12.893Z,1001.39
2019-02-10T04:23:12.862Z,1001.45
2019-02-10T04:24:12.857Z,1001.39
2019-02-10T04:25:12.838Z,1001.37
2019-02-10T04:26:12.839Z,1001.39
2019-02-10T04:27:12.816Z,1001.44
2019-02-10T04:28:12.804Z,1001.36
2019-02-10T04:29:12.795Z,1001.38
2019-02-10T04:30:12.784Z,1001.36
2019-02-10T04:31:12.802Z,1001.34
2019-02-10T04:32:12.766Z,1001.31
2019-02-10T04:33:12.755Z,1001.37
2019-02-10T04:34:12.747Z,1001.31
2019-02-10T04:35:12.734Z,1001.27
2019-02-10T04:36:12.735Z,1001.26
2019-02-10T04:37:12.712Z,1001.24
2019-02-10T04:38:12.699Z,1001.28
2019-02-10T04:39:12.689Z,1001.24
2019-02-10T04:40:12.680Z,1001.28
2019-02-10T04:41:12.684Z,1001.21
2019-02-10T04:42:12.661Z,1001.24
2019-02-10T04:43:12.651Z,1001.24
2019-02-10T04:44:12.638Z,1001.23
2019-02-10T04:45:12.624Z,1001.22
2019-02-10T04:46:12.629Z,1001.22
2019-02-10T04:47:12.663Z,1001.20
2019-02-10T04:48:12.597Z,1001.16
2019-02-10T04:49:12.587Z,1001.20
2019-02-10T04:50:12.579Z,1001.13
2019-02-10T04:51:12.576Z,1001.09
2019-02-10T04:52:12.553Z,1001.08
2019-02-10T04:53:12.544Z,1001.12
2019-02-10T04:54:12.539Z,1001.06
2019-02-10T04:55:12.522Z,1001.05
2019-02-10T04:56:12.519Z,1001.06
2019-02-10T04:57:12.501Z,1001.07
2019-02-10T04:58:12.490Z,1001.00
2019-02-10T04:59:12.496Z,1001.04
2019-02-10T05:00:12.469Z,1000.99
2019-02-10T05:01:12.475Z,1000.96
2019-02-10T05:02:12.446Z,1000.97
2019-02-10T05:03:12.442Z,1000.94
2019-02-10T05:04:12.430Z,1000.92
2019-02-10T05:05:12.415Z,1000.89
2019-02-10T05:06:12.415Z,1000.90
2019-02-10T05:07:12.405Z,1000.87
2019-02-10T05:08:12.388Z,1000.87
2019-02-10T05:09:12.375Z,1000.89
2019-02-10T05:10:12.361Z,1000.85
2019-02-10T05:11:12.362Z,1000.85
2019-02-10T05:12:12.345Z,1000.85
2019-02-10T05:13:12.328Z,1000.78
2019-02-10T05:14:12.319Z,1000.83
2019-02-10T05:15:12.308Z,1000.79
2019-02-10T05:16:12.312Z,1000.76
2019-02-10T05:17:12.288Z,1000.79
2019-02-10T05:18:12.284Z,1000.75
2019-02-10T05:19:12.268Z,1000.77
2019-02-10T05:20:12.263Z,1000.69
2019-02-10T05:21:12.246Z,1000.76
2019-02-10T05:22:12.248Z,1000.73
2019-02-10T05:23:12.227Z,1000.71
2019-02-10T05:24:12.219Z,1000.67
2019-02-10T05:25:12.201Z,1000.62
2019-02-10T05:26:12.201Z,1000.64
2019-02-10T05:27:12.197Z,1000.64
2019-02-10T05:28:12.175Z,1000.59
2019-02-10T05:29:12.164Z,1000.64
2019-02-10T05:30:12.152Z,1000.60
2019-02-10T05:31:12.147Z,1000.56
2019-02-10T05:32:12.147Z,1000.57
2019-02-10T05:33:12.122Z,1000.55
2019-02-10T05:34:12.109Z,1000.51
2019-02-10T05:35:12.102Z,1000.49
2019-02-10T05:36:12.090Z,1000.48
2019-02-10T05:37:12.088Z,1000.48
2019-02-10T05:38:12.069Z,1000.48
2019-02-10T05:39:12.057Z,1000.49
2019-02-10T05:40:12.048Z,1000.50
2019-02-10T05:41:12.034Z,1000.39
2019-02-10T05:42:12.058Z,1000.37
2019-02-10T05:43:12.015Z,1000.37
2019-02-10T05:44:12.002Z,1000.31
2019-02-10T05:45:11.993Z,1000.31
2019-02-10T05:46:11.983Z,1000.25
2019-02-10T05:47:11.984Z,1000.28
2019-02-10T05:48:11.962Z,1000.30
2019-02-10T05:49:11.954Z,1000.26
2019-02-10T05:50:11.945Z,1000.24
2019-02-10T05:51:11.929Z,1000.28
2019-02-10T05:52:11.935Z,1000.23
2019-02-10T05:53:11.911Z,1000.18
2019-02-10T05:54:11.898Z,1000.11
2019-02-10T05:55:11.888Z,1000.07
2019-02-10T05:56:11.875Z,1000.00
2019-02-10T05:57:11.876Z,999.95
2019-02-10T05:58:11.856Z,999.98
2019-02-10T05:59:11.848Z,999.96
2019-02-10T06:00:11.836Z,999.96
2019-02-10T06:01:11.831Z,1000.01
2019-02-10T06:02:11.828Z,999.92
2019-02-10T06:03:11.808Z,999.94
2019-02-10T06:04:11.795Z,999.91
2019-02-10T06:05:11.787Z,999.92
2019-02-10T06:06:11.772Z,999.87
2019-02-10T06:07:11.776Z,999.90
2019-02-10T06:08:13.625Z,999.83
2019-02-10T06:09:11.743Z,999.80
2019-02-10T06:10:11.734Z,999.76
2019-02-10T06:11:11.728Z,999.72
2019-02-10T06:12:11.722Z,999.77
2019-02-10T06:13:11.697Z,999.74
2019-02-10T06:14:11.686Z,999.72
2019-02-10T06:15:11.678Z,999.73
2019-02-10T06:16:11.668Z,999.66
2019-02-10T06:17:11.675Z,999.67
2019-02-10T06:18:11.649Z,999.66
2019-02-10T06:19:11.636Z,999.65
2019-02-10T06:20:11.628Z,999.67
2019-02-10T06:21:11.614Z,999.63
2019-02-10T06:22:11.615Z,999.63
2019-02-10T06:23:11.598Z,999.68
2019-02-10T06:24:11.586Z,999.66
2019-02-10T06:25:11.572Z,999.64
2019-02-10T06:26:11.560Z,999.58
2019-02-10T06:27:11.573Z,999.56
2019-02-10T06:28:11.550Z,999.55
2019-02-10T06:29:11.532Z,999.55
2019-02-10T06:30:11.521Z,999.55
2019-02-10T06:31:11.531Z,999.53
2019-02-10T06:32:11.511Z,999.56
2019-02-10T06:33:11.489Z,999.50
2019-02-10T06:34:11.490Z,999.45
2019-02-10T06:35:11.477Z,999.42
2019-02-10T06:36:11.464Z,999.45
2019-02-10T06:37:11.458Z,999.37
2019-02-10T06:38:11.448Z,999.38
2019-02-10T06:39:11.425Z,999.40
2019-02-10T06:40:11.426Z,999.35
2019-02-10T06:41:11.401Z,999.37
2019-02-10T06:42:11.404Z,999.35
2019-02-10T06:43:11.381Z,999.32
2019-02-10T06:44:11.375Z,999.29
2019-02-10T06:45:11.363Z,999.36
2019-02-10T06:46:11.354Z,999.36
2019-02-10T06:47:11.353Z,999.34
2019-02-10T06:48:11.331Z,999.36
2019-02-10T06:49:11.321Z,999.34
2019-02-10T06:50:11.312Z,999.31
2019-02-10T06:51:11.304Z,999.33
2019-02-10T06:52:11.592Z,999.27
2019-02-10T06:53:11.276Z,999.32
2019-02-10T06:54:11.267Z,999.30
2019-02-10T06:55:11.257Z,999.28
2019-02-10T06:56:11.246Z,999.30
2019-02-10T06:57:11.234Z,999.23
2019-02-10T06:58:11.237Z,999.22
2019-02-10T06:59:11.213Z,999.16
2019-02-10T07:00:11.202Z,999.18
2019-02-10T07:01:11.197Z,999.20
2019-02-10T07:02:11.180Z,999.16
2019-02-10T07:03:11.189Z,999.18
2019-02-10T07:04:11.159Z,999.17
2019-02-10T07:05:11.153Z,999.10
2019-02-10T07:06:11.140Z,999.06
2019-02-10T07:07:11.131Z,999.07
2019-02-10T07:08:11.137Z,999.04
2019-02-10T07:09:11.110Z,999.01
2019-02-10T07:10:11.098Z,998.95
2019-02-10T07:11:11.099Z,998.97
2019-02-10T07:12:11.079Z,998.97
2019-02-10T07:13:11.082Z,998.93
2019-02-10T07:14:11.058Z,998.90
2019-02-10T07:15:11.105Z,998.85
2019-02-10T07:16:11.075Z,998.84
2019-02-10T07:17:11.031Z,998.83
2019-02-10T07:18:11.026Z,998.82
2019-02-10T07:19:11.016Z,998.81
2019-02-10T07:20:11.000Z,998.81
2019-02-10T07:21:10.987Z,998.72
2019-02-10T07:22:10.974Z,998.74
2019-02-10T07:23:10.981Z,998.73
2019-02-10T07:24:10.949Z,998.76
2019-02-10T07:25:10.940Z,998.69
2019-02-10T07:26:10.933Z,998.71
2019-02-10T07:27:10.917Z,998.63
2019-02-10T07:28:10.916Z,998.64
2019-02-10T07:29:10.959Z,998.66
2019-02-10T07:30:10.891Z,998.64
2019-02-10T07:31:10.874Z,998.62
2019-02-10T07:32:10.869Z,998.57
2019-02-10T07:33:10.877Z,998.59
2019-02-10T07:34:10.843Z,998.59
2019-02-10T07:35:11.561Z,998.57
2019-02-10T07:36:10.822Z,998.54
2019-02-10T07:37:10.816Z,998.53
2019-02-10T07:38:10.815Z,998.50
2019-02-10T07:39:10.789Z,998.48
2019-02-10T07:40:10.781Z,998.47
2019-02-10T07:41:10.766Z,998.44
2019-02-10T07:42:10.756Z,998.40
2019-02-10T07:43:10.767Z,998.36
2019-02-10T07:44:10.746Z,998.33
2019-02-10T07:45:10.722Z,998.30
2019-02-10T07:46:10.714Z,998.33
2019-02-10T07:47:10.701Z,998.20
2019-02-10T07:48:10.705Z,998.10
2019-02-10T07:49:10.688Z,998.06
2019-02-10T07:50:10.679Z,998.09
2019-02-10T07:51:10.667Z,997.98
2019-02-10T07:52:10.651Z,997.97
2019-02-10T07:53:10.636Z,997.99
2019-02-10T07:54:10.641Z,997.99
2019-02-10T07:55:10.615Z,998.01
2019-02-10T07:56:10.623Z,997.96
2019-02-10T07:57:10.597Z,997.95
2019-02-10T07:58:10.585Z,997.98
2019-02-10T07:59:10.590Z,997.93
2019-02-10T08:00:10.562Z,997.94
2019-02-10T08:01:10.555Z,997.94
2019-02-10T08:02:10.542Z,997.90
2019-02-10T08:03:10.530Z,997.89
2019-02-10T08:04:10.534Z,997.85
2019-02-10T08:05:10.507Z,997.86
2019-02-10T08:06:10.501Z,997.81
2019-02-10T08:07:10.493Z,997.84
2019-02-10T08:08:10.479Z,997.83
2019-02-10T08:09:10.476Z,997.79
2019-02-10T08:10:10.453Z,997.79
2019-02-10T08:11:10.442Z,997.74
2019-02-10T08:12:10.437Z,997.71
2019-02-10T08:13:10.433Z,997.79
2019-02-10T08:14:10.436Z,997.79
2019-02-10T08:15:10.402Z,997.78
2019-02-10T08:16:10.389Z,997.81
2019-02-10T08:17:11.064Z,997.73
2019-02-10T08:18:10.368Z,997.71
2019-02-10T08:19:10.382Z,997.72
2019-02-10T08:20:10.345Z,997.72
2019-02-10T08:21:11.209Z,997.64
2019-02-10T08:22:10.324Z,997.66
2019-02-10T08:23:10.316Z,997.62
2019-02-10T08:24:10.337Z,997.62
2019-02-10T08:25:10.294Z,997.54
2019-02-10T08:26:10.282Z,997.57
2019-02-10T08:27:10.279Z,997.54
2019-02-10T08:28:10.262Z,997.48
2019-02-10T08:29:10.263Z,997.48
2019-02-10T08:30:10.240Z,997.50
2019-02-10T08:31:10.224Z,997.51
2019-02-10T08:32:10.215Z,997.50
2019-02-10T08:33:10.206Z,997.46
2019-02-10T08:34:10.204Z,997.46
2019-02-10T08:35:10.184Z,997.43
2019-02-10T08:36:10.178Z,997.37
2019-02-10T08:37:10.162Z,997.36
2019-02-10T08:38:10.152Z,997.25
2019-02-10T08:39:10.174Z,997.20
2019-02-10T08:40:10.128Z,997.10
2019-02-10T08:41:10.126Z,997.09
2019-02-10T08:42:10.109Z,997.11
2019-02-10T08:43:10.100Z,997.09
2019-02-10T08:44:10.086Z,997.08
2019-02-10T08:45:10.088Z,997.00
2019-02-10T08:46:10.069Z,996.93
2019-02-10T08:47:10.053Z,996.85
2019-02-10T08:48:10.043Z,996.83
2019-02-10T08:49:10.032Z,996.78
2019-02-10T08:50:10.030Z,996.76
2019-02-10T08:51:10.021Z,996.70
2019-02-10T08:52:10.000Z,996.69
2019-02-10T08:53:09.997Z,996.72
2019-02-10T08:54:09.977Z,996.65
2019-02-10T08:55:09.980Z,996.62
2019-02-10T08:56:09.954Z,996.55
2019-02-10T08:57:09.945Z,996.57
2019-02-10T08:58:09.931Z,996.46
2019-02-10T08:59:09.929Z,996.43
2019-02-10T09:00:09.924Z,996.40
2019-02-10T09:01:09.902Z,996.32
2019-02-10T09:02:09.893Z,996.27
2019-02-10T09:03:10.865Z,996.28
2019-02-10T09:04:09.870Z,996.21
2019-02-10T09:05:09.870Z,996.14
2019-02-10T09:06:09.846Z,996.13
2019-02-10T09:07:09.836Z,996.09
2019-02-10T09:08:09.829Z,996.09
2019-02-10T09:09:09.813Z,996.05
2019-02-10T09:10:09.814Z,996.00
2019-02-10T09:11:09.791Z,995.98
2019-02-10T09:12:09.786Z,995.96
2019-02-10T09:13:09.770Z,995.93
2019-02-10T09:14:09.763Z,995.98
2019-02-10T09:15:09.773Z,995.87
2019-02-10T09:16:09.742Z,995.85
2019-02-10T09:17:09.727Z,995.78
2019-02-10T09:18:09.714Z,995.73
2019-02-10T09:19:09.704Z,995.67
2019-02-10T09:20:09.708Z,995.64
2019-02-10T09:21:09.687Z,995.54
2019-02-10T09:22:09.681Z,995.52
2019-02-10T09:23:09.660Z,995.43
2019-02-10T09:24:09.651Z,995.41
2019-02-10T09:25:09.653Z,995.42
2019-02-10T09:26:09.628Z,995.36
2019-02-10T09:27:09.618Z,995.30
2019-02-10T09:28:09.611Z,995.26
2019-02-10T09:29:09.597Z,995.21
2019-02-10T09:30:09.603Z,995.24
2019-02-10T09:31:09.575Z,995.20
2019-02-10T09:32:09.565Z,995.13
2019-02-10T09:33:09.575Z,995.16
2019-02-10T09:34:09.545Z,995.10
2019-02-10T09:35:09.545Z,995.09
2019-02-10T09:36:09.523Z,995.05
2019-02-10T09:37:09.514Z,994.98
2019-02-10T09:38:09.503Z,994.98
2019-02-10T09:39:10.867Z,994.86
2019-02-10T09:40:09.491Z,994.90
2019-02-10T09:41:09.470Z,994.87
2019-02-10T09:42:09.475Z,994.82
2019-02-10T09:43:09.465Z,994.78
2019-02-10T09:44:09.439Z,994.74
2019-02-10T09:45:09.481Z,994.69
2019-02-10T09:46:09.417Z,994.66
2019-02-10T09:47:09.405Z,994.58
2019-02-10T09:48:09.403Z,994.52
2019-02-10T09:49:09.390Z,994.51
2019-02-10T09:50:11.201Z,994.47
2019-02-10T09:51:09.379Z,994.45
2019-02-10T09:52:09.353Z,994.47
2019-02-10T09:53:09.344Z,994.43
2019-02-10T09:54:09.412Z,994.37
2019-02-10T09:55:09.325Z,994.42
2019-02-10T09:56:10.595Z,994.33
2019-02-10T09:57:09.304Z,994.25
2019-02-10T09:58:09.292Z,994.27
2019-02-10T09:59:09.282Z,994.26
2019-02-10T10:00:09.272Z,994.25
2019-02-10T10:01:09.273Z,994.20
2019-02-10T10:02:09.249Z,994.18
2019-02-10T10:03:09.239Z,994.12
2019-02-10T10:04:09.227Z,994.06
2019-02-10T10:05:09.219Z,994.15
2019-02-10T10:06:09.226Z,994.17
2019-02-10T10:07:09.201Z,994.09
2019-02-10T10:08:09.188Z,994.06
2019-02-10T10:09:09.175Z,994.01
2019-02-10T10:10:09.165Z,993.98
2019-02-10T10:11:09.162Z,993.89
2019-02-10T10:12:09.148Z,993.77
2019-02-10T10:13:09.136Z,993.68
2019-02-10T10:14:09.130Z,993.73
2019-02-10T10:15:09.113Z,993.70
2019-02-10T10:16:09.111Z,993.60
2019-02-10T10:17:09.096Z,993.58
2019-02-10T10:18:09.078Z,993.50
2019-02-10T10:19:09.073Z,993.51
2019-02-10T10:20:09.068Z,993.37
2019-02-10T10:21:09.123Z,993.41
2019-02-10T10:22:09.037Z,993.41
2019-02-10T10:23:09.027Z,993.32
2019-02-10T10:24:09.020Z,993.38
2019-02-10T10:25:09.007Z,993.40
2019-02-10T10:26:09.010Z,993.34
2019-02-10T10:27:08.989Z,993.30
2019-02-10T10:28:08.974Z,993.21
2019-02-10T10:29:08.967Z,993.13
2019-02-10T10:30:08.952Z,993.04
2019-02-10T10:31:08.978Z,993.02
2019-02-10T10:32:08.968Z,992.97
2019-02-10T10:33:08.944Z,992.99
2019-02-10T10:34:08.915Z,992.86
2019-02-10T10:35:08.907Z,992.81
2019-02-10T10:36:08.923Z,992.77
2019-02-10T10:37:08.881Z,992.70
2019-02-10T10:38:08.873Z,992.73
2019-02-10T10:39:08.859Z,992.76
2019-02-10T10:40:08.917Z,992.78
2019-02-10T10:41:08.866Z,992.67
2019-02-10T10:42:08.825Z,992.67
2019-02-10T10:43:08.818Z,992.49
2019-02-10T10:44:08.809Z,992.53
2019-02-10T10:45:08.794Z,992.50
2019-02-10T10:46:08.794Z,992.45
2019-02-10T10:47:08.777Z,992.43
2019-02-10T10:48:08.765Z,992.33
2019-02-10T10:49:08.793Z,992.29
2019-02-10T10:50:08.742Z,992.27
2019-02-10T10:51:08.744Z,992.29
2019-02-10T10:52:08.719Z,992.22
2019-02-10T10:53:08.709Z,992.17
2019-02-10T10:54:08.708Z,992.14
2019-02-10T10:55:08.693Z,992.09
2019-02-10T10:56:08.690Z,992.10
2019-02-10T10:57:08.666Z,992.09
2019-02-10T10:58:08.656Z,992.00
2019-02-10T10:59:08.646Z,991.93
2019-02-10T11:00:08.637Z,991.93
2019-02-10T11:01:08.638Z,991.83
2019-02-10T11:02:08.615Z,991.85
2019-02-10T11:03:08.606Z,991.84
2019-02-10T11:04:08.594Z,991.80
2019-02-10T11:05:08.580Z,991.72
2019-02-10T11:06:08.583Z,991.76
2019-02-10T11:07:08.563Z,991.69
2019-02-10T11:08:08.549Z,991.76
2019-02-10T11:09:08.540Z,991.70
2019-02-10T11:10:08.530Z,991.73
2019-02-10T11:11:08.530Z,991.74
2019-02-10T11:12:08.510Z,991.69
2019-02-10T11:13:08.495Z,991.58
2019-02-10T11:14:08.487Z,991.54
2019-02-10T11:15:08.472Z,991.47
2019-02-10T11:16:08.479Z,991.53
2019-02-10T11:17:10.601Z,991.52
2019-02-10T11:18:08.443Z,991.38
2019-02-10T11:19:08.430Z,991.47
2019-02-10T11:20:08.420Z,991.41
2019-02-10T11:21:08.422Z,991.42
2019-02-10T11:22:08.397Z,991.41
2019-02-10T11:23:08.404Z,991.22
2019-02-10T11:24:08.374Z,991.16
2019-02-10T11:25:08.368Z,991.11
2019-02-10T11:26:08.411Z,991.11
2019-02-10T11:27:08.343Z,991.11
2019-02-10T11:28:08.337Z,991.11
2019-02-10T11:29:08.389Z,991.13
2019-02-10T11:30:08.311Z,991.03
2019-02-10T11:31:08.303Z,991.06
2019-02-10T11:32:08.300Z,991.00
2019-02-10T11:33:08.285Z,991.08
2019-02-10T11:34:08.269Z,991.06
2019-02-10T11:35:09.060Z,990.95
2019-02-10T11:36:08.246Z,990.78
2019-02-10T11:37:08.280Z,990.75
2019-02-10T11:38:08.230Z,990.69
2019-02-10T11:39:08.223Z,990.77
2019-02-10T11:40:09.098Z,990.83
2019-02-10T11:41:08.192Z,990.86
2019-02-10T11:42:08.209Z,990.88
2019-02-10T11:43:08.194Z,990.81
2019-02-10T11:44:08.160Z,990.67
2019-02-10T11:45:08.155Z,990.56
2019-02-10T11:46:08.142Z,990.54
2019-02-10T11:47:08.141Z,990.36
2019-02-10T11:48:08.117Z,990.37
2019-02-10T11:49:08.107Z,990.44
2019-02-10T11:50:08.108Z,990.54
2019-02-10T11:51:08.096Z,990.48
2019-02-10T11:52:08.086Z,990.47
2019-02-10T11:53:08.064Z,990.48
2019-02-10T11:54:08.051Z,990.39
2019-02-10T11:55:08.044Z,990.34
2019-02-10T11:56:08.040Z,990.26
2019-02-10T11:57:08.038Z,990.27
2019-02-10T11:58:08.010Z,990.31
2019-02-10T11:59:08.001Z,990.18
2019-02-10T12:00:07.989Z,990.17
2019-02-10T12:01:07.975Z,990.24
2019-02-10T12:02:07.981Z,990.20
2019-02-10T12:03:07.954Z,990.16
2019-02-10T12:04:07.961Z,990.16
2019-02-10T12:05:07.939Z,990.12
2019-02-10T12:06:07.922Z,990.16
2019-02-10T12:07:07.924Z,990.23
2019-02-10T12:08:07.909Z,990.08
2019-02-10T12:09:07.893Z,990.01
2019-02-10T12:10:07.883Z,990.09
2019-02-10T12:11:07.870Z,990.05
2019-02-10T12:12:07.870Z,990.02
2019-02-10T12:13:07.853Z,990.04
2019-02-10T12:14:07.841Z,990.02
2019-02-10T12:15:07.829Z,989.99
2019-02-10T12:16:07.817Z,989.84
2019-02-10T12:17:07.876Z,989.79